KACT/ACT METAR and TAF weather

Enter ICAO airport designator
Station Type Date Time Source
KACT METAR 2022/05/24 11:51 UTC NOAA

KACT 241151Z 10007KT 10SM FEW011 SCT021 BKN043 21/18 A2981 RMK AO2 SLP087 60000 T02110183 10222 20211 58014


Station Type Date Time Source
KACT Decoded METAR 2022/05/24 11:51 UTC NOAA

WACO REGIONAL AIRPORT, TX, United States (KACT) 31-36N 97-13W 151M
May 24, 2022 - 07:51 AM EDT / 2022.05.24 1151 UTC
Wind: from the E (100 degrees) at 8 MPH (7 KT):0
Visibility: 10 mile(s):0
Sky conditions: mostly cloudy
Temperature: 70.0 F (21.1 C)
Dew Point: 64.9 F (18.3 C)
Relative Humidity: 84%
Pressure (altimeter): 29.81 in. Hg (1009 hPa)
Pressure tendency: 0.04 inches (1.4 hPa) lower than three hours ago
ob: KACT 241151Z 10007KT 10SM FEW011 SCT021 BKN043 21/18 A2981 RMK AO2 SLP087 60000 T02110183 10222 20211 58014
cycle: 12

Station Type Date Time Source
KACT TAF 2022/05/24 12:22 UTC NOAA

TAF KACT 241120Z 2412/2512 13010KT P6SM VCSH OVC012
FM241700 17013KT P6SM OVC025
FM250000 18015KT P6SM VCTS BKN040CB
TEMPO 2501/2505 31015G25KT 3SM TSRA BKN025CB
FM250800 29010KT P6SM VCSH BKN035

Example: see airport list